createdAt,value
2023-04-04T00:00:13.465Z,97719.47
2023-04-04T00:03:01.845Z,97718.66
2023-04-04T00:05:51.656Z,97720.94
2023-04-04T00:08:41.387Z,97714.25
2023-04-04T00:11:29.683Z,97717.09
2023-04-04T00:14:18.230Z,97716.75
2023-04-04T00:17:06.582Z,97713.28
2023-04-04T00:19:54.924Z,97717.81
2023-04-04T00:22:43.352Z,97713.56
2023-04-04T00:25:32.988Z,97719.09
2023-04-04T00:28:21.978Z,97716.06
2023-04-04T00:31:10.557Z,97702.22
2023-04-04T00:33:58.992Z,97702.31
2023-04-04T00:36:47.742Z,97703.09
2023-04-04T00:39:36.013Z,97704.72
2023-04-04T00:42:25.900Z,97700.31
2023-04-04T00:45:14.141Z,97700.31
2023-04-04T00:48:03.298Z,97692.81
2023-04-04T00:50:51.637Z,97693.03
2023-04-04T00:53:40.083Z,97684.28
2023-04-04T00:56:29.003Z,97689.63
2023-04-04T00:59:18.657Z,97693.09
2023-04-04T01:02:07.091Z,97681.31
2023-04-04T01:04:55.391Z,97687.50
2023-04-04T01:07:43.850Z,97679.56
2023-04-04T01:10:34.181Z,97689.13
2023-04-04T01:13:22.791Z,97680.84
2023-04-04T01:16:14.064Z,97685.63
2023-04-04T01:19:02.409Z,97687.00
2023-04-04T01:21:52.163Z,97678.19
2023-04-04T01:24:43.442Z,97679.25
2023-04-04T01:27:33.536Z,97682.31
2023-04-04T01:30:30.086Z,97668.94
2023-04-04T01:33:23.997Z,97668.72
2023-04-04T01:36:18.903Z,97668.47
2023-04-04T01:39:11.735Z,97660.41
2023-04-04T01:42:00.970Z,97679.50
2023-04-04T01:45:15.552Z,97670.97
2023-04-04T01:48:04.383Z,97659.22
2023-04-04T01:50:52.851Z,97656.78
2023-04-04T01:53:41.732Z,97653.97
2023-04-04T01:56:30.110Z,97655.66
2023-04-04T01:59:18.624Z,97649.34
2023-04-04T02:02:08.451Z,97659.63
2023-04-04T02:04:56.764Z,97656.22
2023-04-04T02:07:48.519Z,97657.22
2023-04-04T02:10:45.106Z,97654.59
2023-04-04T02:13:33.520Z,97656.63
2023-04-04T02:16:22.527Z,97652.34
2023-04-04T02:19:14.001Z,97658.28
2023-04-04T02:22:02.725Z,97650.75
2023-04-04T02:24:51.322Z,97652.19
2023-04-04T02:27:39.632Z,97653.59
2023-04-04T02:30:28.132Z,97651.78
2023-04-04T02:33:17.181Z,97652.19
2023-04-04T02:36:07.786Z,97642.44
2023-04-04T02:38:56.276Z,97649.78
2023-04-04T02:41:47.665Z,97647.34
2023-04-04T02:44:37.114Z,97646.31
2023-04-04T02:47:26.746Z,97652.19
2023-04-04T02:50:16.284Z,97648.16
2023-04-04T02:53:07.998Z,97649.38
2023-04-04T02:55:57.859Z,97649.81
2023-04-04T02:58:46.772Z,97647.19
2023-04-04T03:01:35.279Z,97644.34
2023-04-04T03:04:25.782Z,97646.59
2023-04-04T03:07:14.378Z,97644.59
2023-04-04T03:10:04.220Z,97641.13
2023-04-04T03:12:52.639Z,97644.78
2023-04-04T03:15:43.919Z,97645.44
2023-04-04T03:18:36.948Z,97648.50
2023-04-04T03:21:25.432Z,97651.94
2023-04-04T03:24:13.946Z,97641.81
2023-04-04T03:27:03.713Z,97642.84
2023-04-04T03:29:52.960Z,97640.59
2023-04-04T03:32:41.372Z,97646.69
2023-04-04T03:35:29.743Z,97640.59
2023-04-04T03:38:19.120Z,97641.66
2023-04-04T03:41:08.490Z,97640.25
2023-04-04T03:43:58.212Z,97641.88
2023-04-04T03:46:46.578Z,97643.09
2023-04-04T03:49:36.280Z,97639.66
2023-04-04T03:52:25.055Z,97639.66
2023-04-04T03:55:14.291Z,97647.41
2023-04-04T03:58:02.732Z,97657.78
2023-04-04T04:00:52.453Z,97653.31
2023-04-04T04:03:40.863Z,97646.59
2023-04-04T04:06:29.306Z,97653.72
2023-04-04T04:09:17.622Z,97652.97
2023-04-04T04:12:06.169Z,97654.56
2023-04-04T04:14:54.479Z,97655.38
2023-04-04T04:17:44.487Z,97655.81
2023-04-04T04:20:33.870Z,97654.19
2023-04-04T04:23:22.738Z,97657.03
2023-04-04T04:26:13.062Z,97657.63
2023-04-04T04:29:02.470Z,97654.81
2023-04-04T04:31:53.929Z,97654.66
2023-04-04T04:34:46.750Z,97664.41
2023-04-04T04:37:35.995Z,97659.94
2023-04-04T04:40:25.767Z,97661.13
2023-04-04T04:43:26.419Z,97665.22
2023-04-04T04:46:15.013Z,97659.94
2023-04-04T04:49:03.668Z,97649.78
2023-04-04T04:51:54.239Z,97659.31
2023-04-04T04:54:43.712Z,97656.69
2023-04-04T04:57:34.133Z,97657.13
2023-04-04T05:00:25.484Z,97659.53
2023-04-04T05:03:13.911Z,97663.81
2023-04-04T05:06:08.785Z,97666.63
2023-04-04T05:09:00.128Z,97669.72
2023-04-04T05:11:55.385Z,97673.00
2023-04-04T05:14:47.918Z,97677.84
2023-04-04T05:17:37.569Z,97670.34
2023-04-04T05:20:28.817Z,97679.66
2023-04-04T05:23:20.744Z,97679.28
2023-04-04T05:26:10.450Z,97676.84
2023-04-04T05:29:01.449Z,97683.28
2023-04-04T05:31:51.328Z,97670.91
2023-04-04T05:34:42.890Z,97683.09
2023-04-04T05:37:40.069Z,97681.06
2023-04-04T05:40:31.998Z,97677.81
2023-04-04T05:43:29.192Z,97684.28
2023-04-04T05:46:26.120Z,97689.56
2023-04-04T05:49:15.836Z,97689.78
2023-04-04T05:52:13.785Z,97683.09
2023-04-04T05:55:02.703Z,97687.16
2023-04-04T05:57:53.776Z,97688.38
2023-04-04T06:00:53.189Z,97683.44
2023-04-04T06:03:41.688Z,97684.88
2023-04-04T06:06:35.389Z,97690.78
2023-04-04T06:09:24.875Z,97682.03
2023-04-04T06:12:13.321Z,97679.41
2023-04-04T06:15:02.558Z,97680.25
2023-04-04T06:17:52.560Z,97687.53
2023-04-04T06:20:41.650Z,97686.31
2023-04-04T06:23:32.406Z,97688.94
2023-04-04T06:26:21.975Z,97700.53
2023-04-04T06:29:11.567Z,97689.56
2023-04-04T06:32:01.262Z,97686.31
2023-04-04T06:35:10.354Z,97683.00
2023-04-04T06:38:05.565Z,97687.03
2023-04-04T06:40:54.672Z,97684.78
2023-04-04T06:43:43.182Z,97686.13
2023-04-04T06:46:33.263Z,97677.34
2023-04-04T06:49:22.125Z,97686.25
2023-04-04T06:52:11.896Z,97675.91
2023-04-04T06:55:00.316Z,97683.56
2023-04-04T06:57:48.761Z,97686.78
2023-04-04T07:00:37.448Z,97676.75
2023-04-04T07:03:26.575Z,97680.19
2023-04-04T07:06:14.904Z,97681.38
2023-04-04T07:09:05.977Z,97678.47
2023-04-04T07:11:57.272Z,97683.13
2023-04-04T07:14:45.601Z,97674.31
2023-04-04T07:17:33.945Z,97676.31
2023-04-04T07:20:22.324Z,97682.38
2023-04-04T07:23:11.006Z,97670.91
2023-04-04T07:26:00.703Z,97676.38
2023-04-04T07:28:49.025Z,97670.84
2023-04-04T07:31:37.371Z,97669.19
2023-04-04T07:34:26.886Z,97668.25
2023-04-04T07:37:15.177Z,97661.19
2023-04-04T07:40:03.613Z,97660.75
2023-04-04T07:42:54.613Z,97663.19
2023-04-04T07:45:43.003Z,97664.75
2023-04-04T07:48:31.644Z,97663.13
2023-04-04T07:51:28.091Z,97653.94
2023-04-04T07:54:16.534Z,97662.50
2023-04-04T07:57:06.047Z,97663.72
2023-04-04T07:59:55.746Z,97662.09
2023-04-04T08:02:44.756Z,97667.38
2023-04-04T08:05:33.424Z,97668.66
2023-04-04T08:08:21.859Z,97667.78
2023-04-04T08:11:10.133Z,97668.50
2023-04-04T08:13:58.490Z,97670.59
2023-04-04T08:16:48.183Z,97669.38
2023-04-04T08:19:36.540Z,97665.91
2023-04-04T08:22:24.898Z,97671.56
2023-04-04T08:25:13.584Z,97674.28
2023-04-04T08:28:04.295Z,97664.25
2023-04-04T08:30:53.885Z,97662.75
2023-04-04T08:33:47.652Z,97673.41
2023-04-04T08:36:36.412Z,97668.22
2023-04-04T08:39:24.781Z,97668.16
2023-04-04T08:42:15.110Z,97662.63
2023-04-04T08:45:05.318Z,97665.97
2023-04-04T08:47:54.328Z,97664.22
2023-04-04T08:50:44.701Z,97670.47
2023-04-04T08:53:34.247Z,97672.06
2023-04-04T08:56:22.691Z,97669.66
2023-04-04T08:59:11.522Z,97670.72
2023-04-04T09:02:06.393Z,97667.59
2023-04-04T09:05:05.671Z,97670.59
2023-04-04T09:07:58.215Z,97674.63
2023-04-04T09:10:47.153Z,97670.13
2023-04-04T09:13:37.561Z,97666.66
2023-04-04T09:16:28.434Z,97666.66
2023-04-04T09:19:16.936Z,97669.88
2023-04-04T09:22:08.925Z,97666.53
2023-04-04T09:24:58.900Z,97668.81
2023-04-04T09:27:49.398Z,97671.59
2023-04-04T09:30:38.830Z,97670.56
2023-04-04T09:33:27.391Z,97668.03
2023-04-04T09:36:18.267Z,97681.88
2023-04-04T09:39:07.254Z,97666.59
2023-04-04T09:41:57.242Z,97660.28
2023-04-04T09:44:46.086Z,97670.50
2023-04-04T09:47:34.493Z,97670.06
2023-04-04T09:50:24.616Z,97671.88
2023-04-04T09:53:17.855Z,97663.72
2023-04-04T09:56:07.588Z,97661.69
2023-04-04T09:59:03.839Z,97677.06
2023-04-04T10:01:55.909Z,97674.75
2023-04-04T10:04:47.168Z,97672.03
2023-04-04T10:07:42.379Z,97667.22
2023-04-04T10:10:32.948Z,97666.72
2023-04-04T10:13:25.907Z,97670.78
2023-04-04T10:16:15.627Z,97671.06
2023-04-04T10:19:05.312Z,97657.22
2023-04-04T10:21:53.604Z,97662.56
2023-04-04T10:24:42.062Z,97672.69
2023-04-04T10:27:30.479Z,97676.91
2023-04-04T10:30:18.802Z,97668.84
2023-04-04T10:33:12.857Z,97667.22
2023-04-04T10:36:03.420Z,97670.03
2023-04-04T10:38:59.770Z,97671.91
2023-04-04T10:41:51.729Z,97666.75
2023-04-04T10:44:41.621Z,97664.16
2023-04-04T10:47:30.618Z,97658.34
2023-04-04T10:50:21.352Z,97654.94
2023-04-04T10:53:10.574Z,97654.78
2023-04-04T10:55:59.264Z,97649.19
2023-04-04T10:58:47.610Z,97652.19
2023-04-04T11:01:48.623Z,97646.13
2023-04-04T11:04:42.521Z,97642.34
2023-04-04T11:07:32.978Z,97644.84
2023-04-04T11:10:25.511Z,97654.56
2023-04-04T11:13:16.732Z,97640.50
2023-04-04T11:16:07.716Z,97649.75
2023-04-04T11:19:00.793Z,97650.25
2023-04-04T11:21:52.331Z,97637.44
2023-04-04T11:24:45.080Z,97638.25
2023-04-04T11:27:33.428Z,97638.00
2023-04-04T11:30:21.849Z,97633.63
2023-04-04T11:33:10.718Z,97622.41
2023-04-04T11:36:08.630Z,97633.38
2023-04-04T11:38:59.966Z,97625.19
2023-04-04T11:41:51.238Z,97620.22
2023-04-04T11:44:42.993Z,97625.31
2023-04-04T11:47:32.131Z,97625.09
2023-04-04T11:50:20.901Z,97617.69
2023-04-04T11:53:10.310Z,97619.25
2023-04-04T11:55:59.606Z,97619.25
2023-04-04T11:58:56.070Z,97626.34
2023-04-04T12:01:50.967Z,97621.59
2023-04-04T12:04:42.839Z,97619.03
2023-04-04T12:07:32.975Z,97606.28
2023-04-04T12:10:22.966Z,97613.97
2023-04-04T12:13:11.872Z,97616.53
2023-04-04T12:16:01.937Z,97611.88
2023-04-04T12:18:50.274Z,97612.53
2023-04-04T12:21:38.976Z,97609.34
2023-04-04T12:24:27.328Z,97612.63
2023-04-04T12:27:16.011Z,97610.13
2023-04-04T12:30:07.007Z,97609.63
2023-04-04T12:32:57.103Z,97609.03
2023-04-04T12:35:52.738Z,97611.97
2023-04-04T12:39:00.035Z,97611.69
2023-04-04T12:41:49.526Z,97604.44
2023-04-04T12:44:39.457Z,97609.91
2023-04-04T12:47:28.743Z,97607.59
2023-04-04T12:50:24.352Z,97595.78
2023-04-04T12:53:27.358Z,97608.13
2023-04-04T12:56:16.757Z,97611.56
2023-04-04T12:59:05.849Z,97610.56
2023-04-04T13:01:54.386Z,97605.00
2023-04-04T13:04:46.691Z,97607.59
2023-04-04T13:07:43.387Z,97605.22
2023-04-04T13:10:32.322Z,97605.50
2023-04-04T13:13:32.821Z,97598.09
2023-04-04T13:16:32.350Z,97595.88
2023-04-04T13:19:21.494Z,97585.34
2023-04-04T13:22:10.770Z,97593.44
2023-04-04T13:25:00.496Z,97589.41
2023-04-04T13:27:48.862Z,97579.44
2023-04-04T13:30:37.225Z,97575.84
2023-04-04T13:33:25.662Z,97576.56
2023-04-04T13:36:14.215Z,97573.59
2023-04-04T13:39:02.561Z,97568.31
2023-04-04T13:41:52.511Z,97560.38
2023-04-04T13:44:40.914Z,97553.41
2023-04-04T13:47:29.327Z,97564.69
2023-04-04T13:50:18.234Z,97550.25
2023-04-04T13:53:06.680Z,97554.63
2023-04-04T13:56:13.972Z,97558.34
2023-04-04T13:59:04.699Z,97559.91
2023-04-04T14:01:53.255Z,97555.63
2023-04-04T14:04:41.785Z,97555.00
2023-04-04T14:07:30.139Z,97551.91
2023-04-04T14:10:18.799Z,97554.84
2023-04-04T14:13:07.169Z,97555.59
2023-04-04T14:15:56.922Z,97545.41
2023-04-04T14:18:45.538Z,97541.13
2023-04-04T14:21:33.867Z,97545.81
2023-04-04T14:24:22.182Z,97538.66
2023-04-04T14:27:10.508Z,97541.34
2023-04-04T14:29:58.879Z,97547.50
2023-04-04T14:32:49.712Z,97540.56
2023-04-04T14:35:38.265Z,97545.72
2023-04-04T14:38:26.741Z,97540.66
2023-04-04T14:41:16.201Z,97542.22
2023-04-04T14:44:04.582Z,97538.22
2023-04-04T14:46:53.559Z,97528.94
2023-04-04T14:49:43.940Z,97538.19
2023-04-04T14:52:32.227Z,97541.47
2023-04-04T14:55:20.700Z,97543.59
2023-04-04T14:58:09.302Z,97539.31
2023-04-04T15:00:58.030Z,97543.63
2023-04-04T15:03:46.348Z,97544.97
2023-04-04T15:06:38.132Z,97542.56
2023-04-04T15:09:26.557Z,97535.06
2023-04-04T15:12:14.826Z,97534.50
2023-04-04T15:15:03.187Z,97535.56
2023-04-04T15:17:52.049Z,97538.75
2023-04-04T15:20:40.683Z,97536.31
2023-04-04T15:23:31.267Z,97533.41
2023-04-04T15:26:19.625Z,97534.69
2023-04-04T15:29:08.056Z,97532.84
2023-04-04T15:31:56.501Z,97534.75
2023-04-04T15:34:44.806Z,97523.84
2023-04-04T15:37:33.643Z,97523.22
2023-04-04T15:40:23.640Z,97519.59
2023-04-04T15:43:12.058Z,97525.13
2023-04-04T15:46:00.508Z,97517.19
2023-04-04T15:48:51.928Z,97525.09
2023-04-04T15:51:42.985Z,97519.53
2023-04-04T15:54:32.188Z,97515.38
2023-04-04T15:57:21.918Z,97517.81
2023-04-04T16:00:11.447Z,97519.94
2023-04-04T16:03:00.021Z,97519.13
2023-04-04T16:05:48.475Z,97522.19
2023-04-04T16:08:36.889Z,97514.44
2023-04-04T16:11:25.261Z,97516.88
2023-04-04T16:14:14.958Z,97513.13
2023-04-04T16:17:03.322Z,97516.81
2023-04-04T16:19:51.686Z,97518.22
2023-04-04T16:22:40.146Z,97507.75
2023-04-04T16:25:28.676Z,97517.91
2023-04-04T16:28:17.187Z,97518.41
2023-04-04T16:31:06.941Z,97512.16
2023-04-04T16:33:55.289Z,97512.19
2023-04-04T16:36:43.658Z,97512.44
2023-04-04T16:39:32.073Z,97513.53
2023-04-04T16:42:20.439Z,97510.31
2023-04-04T16:45:09.721Z,97504.94
2023-04-04T16:47:59.462Z,97499.84
2023-04-04T16:50:47.835Z,97502.38
2023-04-04T16:53:37.282Z,97497.31
2023-04-04T16:56:25.738Z,97499.75
2023-04-04T16:59:16.042Z,97497.75
2023-04-04T17:02:08.021Z,97496.63
2023-04-04T17:04:57.769Z,97496.09
2023-04-04T17:07:46.109Z,97498.59
2023-04-04T17:10:34.699Z,97498.53
2023-04-04T17:13:23.076Z,97496.47
2023-04-04T17:16:11.512Z,97506.88
2023-04-04T17:18:59.816Z,97509.31
2023-04-04T17:21:49.556Z,97499.28
2023-04-04T17:24:37.884Z,97498.06
2023-04-04T17:27:26.507Z,97496.09
2023-04-04T17:30:15.820Z,97497.69
2023-04-04T17:33:04.889Z,97498.81
2023-04-04T17:35:53.300Z,97496.41
2023-04-04T17:38:43.084Z,97495.03
2023-04-04T17:41:31.398Z,97497.69
2023-04-04T17:44:21.072Z,97499.84
2023-04-04T17:47:09.511Z,97491.53
2023-04-04T17:49:58.198Z,97492.81
2023-04-04T17:52:46.548Z,97496.22
2023-04-04T17:55:36.766Z,97490.25
2023-04-04T17:58:25.848Z,97493.72
2023-04-04T18:01:14.209Z,97495.28
2023-04-04T18:04:02.610Z,97488.75
2023-04-04T18:06:52.306Z,97495.69
2023-04-04T18:09:40.804Z,97495.41
2023-04-04T18:12:30.790Z,97494.03
2023-04-04T18:15:19.891Z,97492.66
2023-04-04T18:18:08.437Z,97500.69
2023-04-04T18:20:56.953Z,97496.44
2023-04-04T18:23:45.483Z,97496.88
2023-04-04T18:26:33.882Z,97497.88
2023-04-04T18:29:24.982Z,97497.25
2023-04-04T18:32:13.376Z,97499.84
2023-04-04T18:35:01.923Z,97491.28
2023-04-04T18:37:50.310Z,97494.22
2023-04-04T18:40:39.241Z,97494.06
2023-04-04T18:43:27.827Z,97496.09
2023-04-04T18:46:17.917Z,97497.59
2023-04-04T18:49:07.040Z,97498.34
2023-04-04T18:51:55.529Z,97506.44
2023-04-04T18:54:45.195Z,97508.84
2023-04-04T18:57:34.602Z,97509.53
2023-04-04T19:00:23.213Z,97508.41
2023-04-04T19:03:13.513Z,97516.28
2023-04-04T19:06:02.583Z,97508.72
2023-04-04T19:08:51.271Z,97513.16
2023-04-04T19:11:39.616Z,97511.31
2023-04-04T19:14:28.103Z,97511.78
2023-04-04T19:17:18.126Z,97514.19
2023-04-04T19:20:09.460Z,97510.72
2023-04-04T19:22:57.825Z,97520.75
2023-04-04T19:25:46.193Z,97520.78
2023-04-04T19:28:34.552Z,97515.47
2023-04-04T19:31:24.152Z,97520.06
2023-04-04T19:34:14.777Z,97517.91
2023-04-04T19:37:04.789Z,97516.28
2023-04-04T19:39:53.131Z,97518.94
2023-04-04T19:42:42.845Z,97519.34
2023-04-04T19:45:48.546Z,97515.44
2023-04-04T19:48:44.772Z,97513.63
2023-04-04T19:51:41.459Z,97521.34
2023-04-04T19:54:34.312Z,97512.25
2023-04-04T19:57:23.446Z,97522.41
2023-04-04T20:00:13.716Z,97521.84
2023-04-04T20:03:07.419Z,97523.84
2023-04-04T20:05:59.421Z,97518.88
2023-04-04T20:08:49.128Z,97531.66
2023-04-04T20:11:38.871Z,97526.16
2023-04-04T20:14:27.400Z,97525.81
2023-04-04T20:17:18.964Z,97523.28
2023-04-04T20:20:10.811Z,97525.81
2023-04-04T20:22:59.206Z,97527.41
2023-04-04T20:25:48.116Z,97532.38
2023-04-04T20:28:38.024Z,97521.44
2023-04-04T20:31:27.413Z,97519.22
2023-04-04T20:34:33.947Z,97516.69
2023-04-04T20:37:26.271Z,97523.47
2023-04-04T20:40:37.210Z,97523.03
2023-04-04T20:43:27.127Z,97523.06
2023-04-04T20:46:15.752Z,97526.34
2023-04-04T20:49:05.158Z,97520.06
2023-04-04T20:51:53.467Z,97533.56
2023-04-04T20:54:41.797Z,97527.00
2023-04-04T20:57:30.114Z,97531.72
2023-04-04T21:03:24.810Z,97533.94
2023-04-04T21:06:14.892Z,97528.25
2023-04-04T21:09:06.977Z,97528.81
2023-04-04T21:11:55.459Z,97534.22
2023-04-04T21:14:44.299Z,97529.13
2023-04-04T21:17:32.800Z,97523.06
2023-04-04T21:20:54.842Z,97525.75
2023-04-04T21:23:52.485Z,97526.69
2023-04-04T21:26:41.876Z,97522.28
2023-04-04T21:29:30.326Z,97524.63
2023-04-04T21:32:21.678Z,97528.22
2023-04-04T21:35:10.783Z,97523.88
2023-04-04T21:37:59.113Z,97525.72
2023-04-04T21:40:48.945Z,97516.66
2023-04-04T21:43:37.280Z,97523.84
2023-04-04T21:46:26.847Z,97516.03
2023-04-04T21:49:15.260Z,97515.78
2023-04-04T21:52:03.630Z,97516.56
2023-04-04T21:54:52.097Z,97518.88
2023-04-04T21:57:41.890Z,97524.47
2023-04-04T22:00:31.240Z,97519.59
2023-04-04T22:03:19.587Z,97522.88
2023-04-04T22:06:08.596Z,97515.81
2023-04-04T22:08:58.100Z,97514.19
2023-04-04T22:11:46.489Z,97515.66
2023-04-04T22:14:42.831Z,97515.00
2023-04-04T22:17:31.637Z,97513.63
2023-04-04T22:20:19.983Z,97517.16
2023-04-04T22:23:08.358Z,97510.66
2023-04-04T22:25:56.702Z,97518.31
2023-04-04T22:28:48.089Z,97511.03
2023-04-04T22:31:38.497Z,97506.22
2023-04-04T22:34:27.987Z,97500.81
2023-04-04T22:37:41.333Z,97505.81
2023-04-04T22:40:30.209Z,97496.75
2023-04-04T22:43:18.552Z,97497.56
2023-04-04T22:46:07.057Z,97499.16
2023-04-04T22:49:05.962Z,97494.00
2023-04-04T22:51:55.529Z,97502.41
2023-04-04T22:54:44.151Z,97494.59
2023-04-04T22:57:32.497Z,97495.88
2023-04-04T23:00:20.935Z,97493.44
2023-04-04T23:03:09.312Z,97500.09
2023-04-04T23:05:59.077Z,97494.81
2023-04-04T23:08:47.456Z,97490.06
2023-04-04T23:11:35.804Z,97490.66
2023-04-04T23:14:24.365Z,97485.53
2023-04-04T23:17:12.736Z,97487.50
2023-04-04T23:20:01.452Z,97494.94
2023-04-04T23:22:51.817Z,97484.94
2023-04-04T23:25:40.150Z,97483.63
2023-04-04T23:28:30.521Z,97483.09
2023-04-04T23:31:20.462Z,97486.69
2023-04-04T23:34:08.953Z,97483.63
2023-04-04T23:36:57.359Z,97478.00
2023-04-04T23:39:47.506Z,97479.97
2023-04-04T23:42:35.810Z,97485.38
2023-04-04T23:45:24.707Z,97472.44
2023-04-04T23:48:13.162Z,97472.09
2023-04-04T23:51:03.854Z,97471.28
2023-04-04T23:53:52.304Z,97466.53
2023-04-04T23:56:42.077Z,97462.66
2023-04-04T23:59:30.449Z,97465.59
